Erie, North Dakota
Current Conditions -  °F | °C
As of 1:53 PM on Monday 22 Dec 2014 (Local Time) from KFAR Reporting Station
Overcast Overcast  
Wind Chill: 34°   Ceiling: 700
Heat Index: 41°   Visibility: 9mi
Dew Point: 38°   Wind: 12mph
Humidity: 89%   Direction: 120°ESE
Pressure: 29.5"   Gusts: NA
Location:  47.12°N, 97.39°W
Report Text: KFAR 221953Z 12010KT 9SM OVC007 05/03 A2950 RMK AO2 RAE21 SLP996 P0001 T00500033
Loading
Personal Weather Stations






























Interactive Weather Map New forecast layout! Learn more

10-Day Weather Forecast

Advertisements
Track Severe Weather on mobile